Time;durP1;ratioP1;P1;durP2;ratioP2;P2;SDS_P1;SDS_P2;PMS_P1;PMS_P2;Temp;Humidity;BMP_temperature;BMP_pressure;BME280_temperature;BME280_humidity;BME280_pressure;Samples;Min_cycle;Max_cycle;Signal;HPM_P1;HPM_P2
2021/05/02 00:00:39;;;;;;;13.27;6.05;;;461.70;2278.40;;;;;;4918585;29;20040;-86
2021/05/02 00:03:06;;;;;;;10.95;5.88;;;461.70;2252.80;;;;;;4917521;29;20032;-85
2021/05/02 00:05:38;;;;;;;10.63;5.30;;;461.70;2252.80;;;;;;4904059;29;20092;-85
2021/05/02 00:08:05;;;;;;;15.05;6.65;;;461.70;2227.20;;;;;;4921194;29;20078;-85
2021/05/02 00:10:33;;;;;;;15.65;5.93;;;461.60;2278.40;;;;;;4920407;29;20135;-87
2021/05/02 00:13:01;;;;;;;12.13;5.13;;;461.50;2278.40;;;;;;4920486;29;20512;-86
2021/05/02 00:15:27;;;;;;;10.32;5.88;;;461.60;2278.40;;;;;;4921441;29;20180;-86
2021/05/02 00:17:56;;;;;;;11.00;4.80;;;461.60;2278.40;;;;;;4922888;29;20401;-85
2021/05/02 00:20:24;;;;;;;8.43;3.85;;;461.50;2278.40;;;;;;4924351;29;20072;-86
2021/05/02 00:22:54;;;;;;;12.13;4.65;;;461.40;2304.00;;;;;;4943621;29;20024;-86
2021/05/02 00:25:30;;;;;;;9.05;3.75;;;461.30;2304.00;;;;;;4941759;29;20041;-85
2021/05/02 00:27:56;;;;;;;8.82;3.70;;;461.30;2278.40;;;;;;4941611;29;20032;-85
2021/05/02 00:30:25;;;;;;;10.27;4.57;;;461.40;2278.40;;;;;;4930382;29;20067;-85
2021/05/02 00:32:53;;;;;;;15.60;5.45;;;461.30;2304.00;;;;;;4925860;29;20040;-86
2021/05/02 00:35:24;;;;;;;13.15;4.50;;;461.50;2252.80;;;;;;4923563;29;20038;-86
2021/05/02 00:37:51;;;;;;;8.93;4.93;;;461.40;2278.40;;;;;;4920692;29;20060;-86
2021/05/02 00:40:20;;;;;;;10.23;4.05;;;461.20;2329.60;;;;;;4920422;29;20051;-87
2021/05/02 00:42:51;;;;;;;9.73;4.30;;;461.30;2304.00;;;;;;4920203;29;20059;-86
2021/05/02 00:45:36;;;;;;;14.70;6.88;;;461.40;2304.00;;;;;;4920368;29;20408;-86
2021/05/02 00:48:14;;;;;;;17.08;5.65;;;461.40;2278.40;;;;;;4920245;29;20347;-86
2021/05/02 00:50:50;;;;;;;9.93;4.50;;;461.40;2304.00;;;;;;4920069;29;20071;-87
2021/05/02 00:53:33;;;;;;;10.10;4.07;;;461.60;2278.40;;;;;;4919954;29;20070;-86
2021/05/02 00:56:12;;;;;;;15.43;6.13;;;461.50;2278.40;;;;;;4920158;29;20515;-86
2021/05/02 00:58:52;;;;;;;15.90;4.60;;;461.60;2252.80;;;;;;4920055;29;20047;-86
2021/05/02 01:01:20;;;;;;;10.85;5.38;;;461.60;2278.40;;;;;;4920456;29;20040;-86
2021/05/02 01:03:48;;;;;;;10.43;4.43;;;461.60;2252.80;;;;;;4920355;29;20126;-84
2021/05/02 01:06:15;;;;;;;14.20;4.82;;;461.60;2252.80;;;;;;4919973;29;20119;-85
2021/05/02 01:08:42;;;;;;;9.63;4.50;;;461.70;2252.80;;;;;;4919728;29;20044;-84
2021/05/02 01:11:12;;;;;;;11.60;4.50;;;461.60;2278.40;;;;;;4919996;29;20044;-85
2021/05/02 01:13:48;;;;;;;12.90;5.35;;;461.60;2278.40;;;;;;4920247;29;20127;-85
2021/05/02 01:16:16;;;;;;;10.18;4.65;;;461.50;2304.00;;;;;;4919875;29;20036;-85
2021/05/02 01:18:43;;;;;;;10.85;4.53;;;461.50;2278.40;;;;;;4919764;29;20032;-85
2021/05/02 01:21:13;;;;;;;13.77;5.53;;;461.60;2278.40;;;;;;4919714;29;20094;-85
2021/05/02 01:23:40;;;;;;;13.77;5.45;;;461.60;2278.40;;;;;;4921227;29;20524;-84
2021/05/02 01:26:13;;;;;;;11.07;5.68;;;461.60;2252.80;;;;;;4919975;29;20036;-85
2021/05/02 01:28:42;;;;;;;11.40;5.07;;;486.40;2227.20;;;;;;4920498;29;20032;-85
2021/05/02 01:31:08;;;;;;;16.95;4.95;;;486.50;2227.20;;;;;;4919825;29;20048;-85
2021/05/02 01:33:35;;;;;;;11.82;4.97;;;486.50;2201.60;;;;;;4920599;29;20036;-86
2021/05/02 01:36:02;;;;;;;12.65;5.88;;;486.40;2227.20;;;;;;4924516;29;20080;-86
2021/05/02 01:38:29;;;;;;;9.98;4.95;;;486.50;2252.80;;;;;;4931169;29;20581;-86
2021/05/02 01:40:56;;;;;;;10.00;4.70;;;461.70;2252.80;;;;;;4930413;29;20044;-86
2021/05/02 01:43:24;;;;;;;9.70;4.88;;;461.30;2329.60;;;;;;4929873;29;20043;-85
2021/05/02 01:45:50;;;;;;;17.20;4.57;;;461.40;2329.60;;;;;;4919048;29;20043;-85
2021/05/02 01:48:18;;;;;;;6.65;4.03;;;461.10;2380.80;;;;;;4919273;29;20036;-86
2021/05/02 01:50:51;;;;;;;13.02;4.32;;;461.10;2355.20;;;;;;4919160;29;20040;-87
2021/05/02 01:53:17;;;;;;;11.55;5.68;;;461.10;2355.20;;;;;;4919102;29;20048;-86
2021/05/02 01:55:45;;;;;;;14.25;4.40;;;461.20;2355.20;;;;;;4918617;29;20561;-85
2021/05/02 01:58:11;;;;;;;12.88;5.10;;;461.30;2304.00;;;;;;4919077;29;20032;-84
2021/05/02 02:00:54;;;;;;;11.15;5.60;;;461.40;2304.00;;;;;;4919268;29;20036;-85
2021/05/02 02:03:20;;;;;;;9.88;4.45;;;461.50;2304.00;;;;;;4919010;29;20042;-84
2021/05/02 02:05:47;;;;;;;9.57;4.43;;;461.50;2278.40;;;;;;4919308;29;20039;-87
2021/05/02 02:08:13;;;;;;;12.18;4.47;;;461.50;2304.00;;;;;;4918764;29;20044;-86
2021/05/02 02:10:39;;;;;;;8.73;4.15;;;461.60;2278.40;;;;;;4918856;29;20044;-86
2021/05/02 02:13:08;;;;;;;6.95;4.55;;;461.60;2304.00;;;;;;4919287;29;20062;-85
2021/05/02 02:15:34;;;;;;;6.28;3.63;;;461.60;2304.00;;;;;;4919018;29;20040;-85
2021/05/02 02:18:00;;;;;;;10.07;3.53;;;461.60;2278.40;;;;;;4918989;29;20039;-86
2021/05/02 02:20:28;;;;;;;12.27;3.78;;;461.60;2252.80;;;;;;4919278;29;20504;-86
2021/05/02 02:22:57;;;;;;;12.80;3.75;;;461.60;2278.40;;;;;;4920454;29;20441;-85
2021/05/02 02:25:28;;;;;;;10.52;4.60;;;461.60;2252.80;;;;;;4918728;29;20060;-84
2021/05/02 02:27:56;;;;;;;9.27;3.88;;;461.70;2227.20;;;;;;4918193;29;20075;-84
2021/05/02 02:30:25;;;;;;;7.95;3.42;;;461.60;2278.40;;;;;;4918483;29;20048;-86
2021/05/02 02:32:55;;;;;;;9.25;4.80;;;461.30;2329.60;;;;;;4920547;29;20032;-85
2021/05/02 02:35:25;;;;;;;15.73;3.60;;;461.10;2380.80;;;;;;4924181;29;20127;-87
2021/05/02 02:37:56;;;;;;;7.78;3.88;;;461.00;2380.80;;;;;;4922112;29;20036;-86
2021/05/02 02:40:26;;;;;;;11.63;4.47;;;461.00;2380.80;;;;;;4923229;29;20040;-85
2021/05/02 02:42:52;;;;;;;10.45;4.30;;;461.10;2355.20;;;;;;4931316;29;20056;-86
2021/05/02 02:45:19;;;;;;;9.57;3.55;;;461.20;2329.60;;;;;;4940669;29;20040;-83
2021/05/02 02:47:59;;;;;;;8.18;3.90;;;461.30;2304.00;;;;;;4941188;29;20024;-85
2021/05/02 02:50:29;;;;;;;8.98;3.92;;;461.30;2304.00;;;;;;4940836;29;20047;-86
2021/05/02 02:53:03;;;;;;;8.88;3.75;;;461.40;2278.40;;;;;;4940942;29;20056;-85
2021/05/02 02:55:39;;;;;;;7.60;4.53;;;461.30;2278.40;;;;;;4940926;29;20020;-85
2021/05/02 02:58:09;;;;;;;9.98;4.18;;;461.40;2304.00;;;;;;4939419;29;20036;-86
2021/05/02 03:00:36;;;;;;;10.55;4.22;;;461.20;2329.60;;;;;;4936008;29;20043;-84
2021/05/02 03:03:10;;;;;;;13.93;5.13;;;461.30;2304.00;;;;;;4917828;29;20039;-85
2021/05/02 03:05:56;;;;;;;20.15;7.10;;;461.30;2355.20;;;;;;4918270;29;20047;-85
2021/05/02 03:08:24;;;;;;;16.75;6.45;;;461.20;2304.00;;;;;;4917760;29;20485;-85
2021/05/02 03:10:51;;;;;;;9.52;4.32;;;461.30;2304.00;;;;;;4902303;29;20044;-85
2021/05/02 03:13:26;;;;;;;13.18;4.28;;;461.30;2278.40;;;;;;4917684;29;20032;-84
2021/05/02 03:15:52;;;;;;;12.07;5.68;;;461.30;2304.00;;;;;;4917879;29;20036;-86
2021/05/02 03:18:27;;;;;;;10.15;4.00;;;461.60;2304.00;;;;;;4918118;29;20519;-85
2021/05/02 03:21:11;;;;;;;9.05;4.43;;;461.20;2329.60;;;;;;4917533;29;20520;-85
2021/05/02 03:23:46;;;;;;;12.02;4.38;;;461.20;2329.60;;;;;;4917914;29;20028;-85
2021/05/02 03:26:12;;;;;;;8.95;3.65;;;461.30;2304.00;;;;;;4918266;29;20036;-85
2021/05/02 03:28:52;;;;;;;10.43;4.10;;;461.30;2278.40;;;;;;4919258;29;20505;-85
2021/05/02 03:31:29;;;;;;;8.70;3.67;;;461.20;2329.60;;;;;;4919186;29;20048;-85
2021/05/02 03:34:03;;;;;;;9.60;4.93;;;461.30;2304.00;;;;;;4926844;29;20557;-85
2021/05/02 03:36:45;;;;;;;15.98;4.60;;;461.20;2329.60;;;;;;4918955;29;20036;-85
2021/05/02 03:39:12;;;;;;;10.52;3.83;;;461.10;2355.20;;;;;;4917478;29;20036;-85
2021/05/02 03:41:38;;;;;;;9.25;3.63;;;461.00;2355.20;;;;;;4920372;29;20032;-85
2021/05/02 03:44:17;;;;;;;12.55;3.25;;;461.00;2355.20;;;;;;4921099;29;20044;-85
2021/05/02 03:46:43;;;;;;;8.30;3.42;;;461.00;2355.20;;;;;;4921823;29;20039;-84
2021/05/02 03:49:13;;;;;;;13.65;5.15;;;461.00;2355.20;;;;;;4924088;29;20104;-86
2021/05/02 03:51:40;;;;;;;8.88;3.75;;;461.00;2355.20;;;;;;4921197;29;20468;-85
2021/05/02 03:54:14;;;;;;;60.72;29.52;;;460.90;2380.80;;;;;;4920977;29;20138;-87
2021/05/02 03:56:42;;;;;;;56.38;25.98;;;460.90;2380.80;;;;;;4921187;29;20037;-85
2021/05/02 03:59:11;;;;;;;22.25;9.50;;;461.00;2380.80;;;;;;4920916;29;20040;-86
2021/05/02 04:01:42;;;;;;;20.52;9.75;;;436.10;2355.20;;;;;;4921374;29;20477;-85
2021/05/02 04:04:11;;;;;;;19.02;9.60;;;435.90;2355.20;;;;;;4921315;29;20127;-86
2021/05/02 04:06:39;;;;;;;19.27;10.25;;;436.10;2355.20;;;;;;4921490;29;20033;-87
2021/05/02 04:09:07;;;;;;;22.30;11.15;;;460.90;2355.20;;;;;;4921641;29;20036;-86
2021/05/02 04:11:40;;;;;;;23.55;11.88;;;461.00;2355.20;;;;;;4921782;29;20104;-86
2021/05/02 04:14:08;;;;;;;17.67;8.98;;;461.00;2355.20;;;;;;4921825;29;20036;-85
2021/05/02 04:16:34;;;;;;;13.85;6.88;;;461.10;2329.60;;;;;;4920513;29;20043;-85
2021/05/02 04:19:00;;;;;;;12.40;7.45;;;461.30;2329.60;;;;;;4921235;29;20504;-86
2021/05/02 04:21:27;;;;;;;14.60;7.60;;;461.20;2304.00;;;;;;4920434;29;20040;-85
2021/05/02 04:23:53;;;;;;;19.38;7.72;;;461.10;2304.00;;;;;;4920179;29;20040;-84
2021/05/02 04:26:19;;;;;;;13.77;5.93;;;461.30;2304.00;;;;;;4920415;29;20044;-84
2021/05/02 04:28:48;;;;;;;12.40;5.97;;;461.30;2304.00;;;;;;4920410;29;20036;-84
2021/05/02 04:31:17;;;;;;;16.80;5.05;;;461.30;2304.00;;;;;;4920729;29;20104;-84
2021/05/02 04:33:43;;;;;;;15.68;5.40;;;461.30;2304.00;;;;;;4920810;29;20059;-85
2021/05/02 04:36:09;;;;;;;10.18;4.55;;;461.20;2304.00;;;;;;4920562;29;20401;-85
2021/05/02 04:38:35;;;;;;;13.45;5.25;;;461.20;2329.60;;;;;;4920419;29;20126;-86
2021/05/02 04:41:01;;;;;;;8.55;3.75;;;461.20;2304.00;;;;;;4920349;29;20036;-86
2021/05/02 04:43:27;;;;;;;13.32;4.95;;;461.20;2304.00;;;;;;4920430;29;20063;-86
2021/05/02 04:45:53;;;;;;;9.65;5.07;;;461.20;2329.60;;;;;;4920378;29;20032;-86
2021/05/02 04:48:19;;;;;;;9.38;4.40;;;461.10;2355.20;;;;;;4919743;29;20043;-86
2021/05/02 04:50:45;;;;;;;8.18;4.05;;;461.20;2304.00;;;;;;4919930;29;20063;-86
2021/05/02 04:53:10;;;;;;;10.25;5.22;;;461.10;2329.60;;;;;;4918954;29;20568;-85
2021/05/02 04:55:37;;;;;;;15.40;6.65;;;461.00;2355.20;;;;;;4920288;29;20177;-86
2021/05/02 04:58:05;;;;;;;158.50;38.72;;;461.10;2355.20;;;;;;4920038;29;20036;-86
2021/05/02 05:00:35;;;;;;;28.98;8.75;;;461.40;2329.60;;;;;;4920660;29;20044;-86
2021/05/02 05:03:07;;;;;;;10.30;4.80;;;461.30;2304.00;;;;;;4920020;29;20480;-85
2021/05/02 05:05:33;;;;;;;13.52;5.57;;;461.40;2278.40;;;;;;4934011;29;20060;-84
2021/05/02 05:07:59;;;;;;;18.27;5.30;;;461.60;2278.40;;;;;;4919792;29;20040;-86
2021/05/02 05:10:24;;;;;;;8.15;4.13;;;461.60;2278.40;;;;;;4919766;29;20472;-86
2021/05/02 05:12:50;;;;;;;10.88;5.15;;;461.60;2278.40;;;;;;4917898;29;20032;-86
2021/05/02 05:15:16;;;;;;;16.88;6.13;;;461.60;2278.40;;;;;;4919688;29;20047;-86
2021/05/02 05:17:51;;;;;;;25.38;12.13;;;461.60;2278.40;;;;;;4920042;29;20441;-86
2021/05/02 05:20:17;;;;;;;30.50;16.27;;;461.60;2304.00;;;;;;4920063;29;20493;-85
2021/05/02 05:22:43;;;;;;;34.67;20.75;;;486.40;2278.40;;;;;;4920163;29;20086;-85
2021/05/02 05:25:27;;;;;;;40.60;25.05;;;486.50;2278.40;;;;;;4920129;29;20048;-86
2021/05/02 05:27:52;;;;;;;50.45;29.25;;;486.50;2278.40;;;;;;4919546;29;20040;-85
2021/05/02 05:30:18;;;;;;;53.33;31.90;;;486.50;2252.80;;;;;;4919389;29;20048;-85
2021/05/02 05:32:47;;;;;;;73.90;28.65;;;486.60;2227.20;;;;;;4919645;29;20042;-85
2021/05/02 05:35:13;;;;;;;20.73;10.35;;;486.70;2227.20;;;;;;4920438;29;20069;-85
2021/05/02 05:37:39;;;;;;;14.77;6.20;;;486.80;2201.60;;;;;;4921653;29;20100;-85
2021/05/02 05:40:20;;;;;;;17.80;8.52;;;486.80;2227.20;;;;;;4919758;29;20040;-85
2021/05/02 05:42:54;;;;;;;39.42;12.63;;;486.80;2201.60;;;;;;4922229;29;20036;-84
2021/05/02 05:45:20;;;;;;;12.35;6.03;;;487.00;2201.60;;;;;;4924086;29;20032;-85
2021/05/02 05:48:18;;;;;;;31.92;12.23;;;487.00;2201.60;;;;;;4922915;29;20051;-85
2021/05/02 05:50:56;;;;;;;21.48;10.07;;;487.20;2176.00;;;;;;4932502;29;20040;-84
2021/05/02 05:53:22;;;;;;;24.65;7.82;;;487.20;2176.00;;;;;;4940445;29;20063;-86
2021/05/02 05:55:48;;;;;;;10.52;5.35;;;487.30;2150.40;;;;;;4940383;29;20040;-85
2021/05/02 05:58:17;;;;;;;15.63;5.82;;;512.00;2150.40;;;;;;4940440;29;20021;-85
2021/05/02 06:00:42;;;;;;;24.30;11.65;;;512.10;2150.40;;;;;;4940614;29;20120;-86
2021/05/02 06:03:19;;;;;;;16.63;11.20;;;512.20;2150.40;;;;;;4939653;29;20036;-85
2021/05/02 06:06:14;;;;;;;29.45;16.02;;;512.20;2124.80;;;;;;4948578;29;20043;-85
2021/05/02 06:09:07;;;;;;;21.55;11.82;;;512.30;2150.40;;;;;;4935557;29;20036;-86
2021/05/02 06:12:24;;;;;;;22.83;9.57;;;512.40;2099.20;;;;;;4926622;29;20036;-86
2021/05/02 06:14:55;;;;;;;12.68;5.85;;;512.50;2099.20;;;;;;4862374;29;20490;-85
2021/05/02 06:17:27;;;;;;;13.52;5.15;;;512.50;2073.60;;;;;;4862449;29;20052;-86
2021/05/02 06:20:32;;;;;;;12.95;6.90;;;512.60;2099.20;;;;;;4862924;29;20387;-86
2021/05/02 06:23:06;;;;;;;13.98;7.90;;;512.60;2073.60;;;;;;4874963;29;20082;-84
2021/05/02 06:25:43;;;;;;;16.88;8.43;;;512.80;2073.60;;;;;;4880431;29;20048;-84
2021/05/02 06:28:49;;;;;;;17.88;8.02;;;537.60;2099.20;;;;;;4861834;29;20599;-84
2021/05/02 06:31:30;;;;;;;10.75;5.65;;;537.80;2099.20;;;;;;4860952;29;20057;-84
2021/05/02 06:37:51;;;;;;;21.77;11.73;;;538.00;2048.00;;;;;;4843373;29;20044;-85
2021/05/02 07:15:44;;;;;;;;;;;;;;;;;;;;;
2021/05/02 07:25:36;;;;;;;19.13;7.10;;;589.30;1766.40;;;;;;4881520;29;20093;-89
